createdAt,value
2023-02-20T00:01:09.779Z,-11207.44
2023-02-20T00:04:16.175Z,-11208.72
2023-02-20T00:07:22.738Z,-11203.50
2023-02-20T00:10:30.221Z,-11201.81
2023-02-20T00:13:36.789Z,-11198.16
2023-02-20T00:16:43.002Z,-11200.28
2023-02-20T00:19:49.098Z,-11191.69
2023-02-20T00:22:56.293Z,-11198.31
2023-02-20T00:26:04.148Z,-11191.00
2023-02-20T00:29:10.085Z,-11191.41
2023-02-20T00:32:16.005Z,-11193.09
2023-02-20T00:35:22.978Z,-11191.28
2023-02-20T00:38:28.840Z,-11185.38
2023-02-20T00:41:36.710Z,-11189.72
2023-02-20T00:44:42.783Z,-11185.50
2023-02-20T00:47:49.109Z,-11184.25
2023-02-20T00:50:55.615Z,-11187.34
2023-02-20T00:54:01.908Z,-11195.63
2023-02-20T00:57:09.330Z,-11199.44
2023-02-20T01:00:21.293Z,-11198.59
2023-02-20T01:03:27.613Z,-11201.53
2023-02-20T01:06:33.889Z,-11198.03
2023-02-20T01:09:40.088Z,-11196.91
2023-02-20T01:12:47.701Z,-11200.13
2023-02-20T01:15:54.444Z,-11196.91
2023-02-20T01:19:00.680Z,-11195.91
2023-02-20T01:22:09.038Z,-11187.47
2023-02-20T01:25:15.429Z,-11192.53
2023-02-20T01:28:23.217Z,-11195.78
2023-02-20T01:31:29.652Z,-11190.56
2023-02-20T01:34:35.528Z,-11188.31
2023-02-20T01:37:41.732Z,-11194.22
2023-02-20T01:40:50.066Z,-11195.63
2023-02-20T01:43:57.618Z,-11195.63
2023-02-20T01:47:08.217Z,-11191.41
2023-02-20T01:50:15.514Z,-11192.97
2023-02-20T01:53:24.914Z,-11191.28
2023-02-20T01:56:31.518Z,-11194.09
2023-02-20T01:59:43.441Z,-11186.34
2023-02-20T02:02:53.360Z,-11183.81
2023-02-20T02:06:01.749Z,-11181.28
2023-02-20T02:09:14.786Z,-11171.75
2023-02-20T02:12:21.231Z,-11169.78
2023-02-20T02:15:28.592Z,-11165.97
2023-02-20T02:18:50.056Z,-11163.72
2023-02-20T02:22:26.982Z,-11158.25
2023-02-20T02:25:48.364Z,-11155.28
2023-02-20T02:29:22.999Z,-11156.13
2023-02-20T02:33:03.065Z,-11164.28
2023-02-20T02:36:28.418Z,-11165.84
2023-02-20T02:39:44.225Z,-11173.56
2023-02-20T02:42:56.479Z,-11174.25
2023-02-20T02:46:10.890Z,-11175.38
2023-02-20T02:49:26.462Z,-11173.72
2023-02-20T02:52:48.744Z,-11175.53
2023-02-20T02:55:54.878Z,-11177.91
2023-02-20T02:59:01.276Z,-11173.00
2023-02-20T03:02:13.140Z,-11171.47
2023-02-20T03:05:24.430Z,-11173.16
2023-02-20T03:08:38.484Z,-11170.47
2023-02-20T03:11:46.538Z,-11174.13
2023-02-20T03:15:16.221Z,-11178.19
2023-02-20T03:18:31.028Z,-11179.31
2023-02-20T03:21:38.784Z,-11176.50
2023-02-20T03:24:56.399Z,-11169.63
2023-02-20T03:28:07.702Z,-11168.09
2023-02-20T03:31:18.989Z,-11169.63
2023-02-20T03:34:46.374Z,-11170.47
2023-02-20T03:38:11.836Z,-11183.81
2023-02-20T03:41:38.153Z,-11182.84
2023-02-20T03:44:46.062Z,-11182.97
2023-02-20T03:47:55.105Z,-11180.72
2023-02-20T03:51:13.401Z,-11175.66
2023-02-20T03:54:20.321Z,-11171.19
2023-02-20T03:57:32.598Z,-11170.34
2023-02-20T04:00:42.962Z,-11169.78
2023-02-20T04:03:51.850Z,-11165.13
2023-02-20T04:06:59.089Z,-11161.63
2023-02-20T04:10:09.154Z,-11162.19
2023-02-20T04:13:17.878Z,-11159.94
2023-02-20T04:16:25.563Z,-11161.63
2023-02-20T04:19:31.681Z,-11164.84
2023-02-20T04:22:44.128Z,-11165.97
2023-02-20T04:25:55.335Z,-11169.06
2023-02-20T04:29:03.142Z,-11170.34
2023-02-20T04:32:09.275Z,-11170.19
2023-02-20T04:35:18.685Z,-11169.50
2023-02-20T04:38:24.771Z,-11169.50
2023-02-20T04:41:30.777Z,-11167.09
2023-02-20T04:44:40.029Z,-11164.00
2023-02-20T04:47:46.305Z,-11167.66
2023-02-20T04:50:53.719Z,-11164.16
2023-02-20T04:54:00.106Z,-11166.13
2023-02-20T04:57:06.152Z,-11164.84
2023-02-20T05:00:15.556Z,-11166.13
2023-02-20T05:03:21.720Z,-11166.69
2023-02-20T05:06:28.243Z,-11163.88
2023-02-20T05:09:34.305Z,-11163.16
2023-02-20T05:12:40.367Z,-11166.25
2023-02-20T05:15:48.168Z,-11160.78
2023-02-20T05:18:54.585Z,-11162.75
2023-02-20T05:22:18.514Z,-11161.34
2023-02-20T05:25:24.667Z,-11160.50
2023-02-20T05:28:31.360Z,-11160.50
2023-02-20T05:31:39.737Z,-11158.81
2023-02-20T05:34:46.822Z,-11161.06
2023-02-20T05:37:53.471Z,-11160.06
2023-02-20T05:40:59.924Z,-11163.88
2023-02-20T05:44:06.812Z,-11163.03
2023-02-20T05:47:14.673Z,-11163.31
2023-02-20T05:50:21.127Z,-11164.72
2023-02-20T05:53:29.174Z,-11165.97
2023-02-20T05:56:35.414Z,-11167.53
2023-02-20T05:59:42.086Z,-11168.66
2023-02-20T06:02:49.954Z,-11165.00
2023-02-20T06:05:57.106Z,-11173.16
2023-02-20T06:09:03.918Z,-11172.88
2023-02-20T06:12:10.413Z,-11184.66
2023-02-20T06:15:17.224Z,-11184.25
2023-02-20T06:18:25.029Z,-11176.50
2023-02-20T06:21:31.698Z,-11180.59
2023-02-20T06:24:38.234Z,-11173.72
2023-02-20T06:27:44.278Z,-11181.44
2023-02-20T06:30:51.009Z,-11186.91
2023-02-20T06:33:58.709Z,-11184.81
2023-02-20T06:37:05.892Z,-11188.31
2023-02-20T06:40:13.229Z,-11176.78
2023-02-20T06:43:19.926Z,-11174.25
2023-02-20T06:46:26.683Z,-11177.63
2023-02-20T06:49:34.253Z,-11175.53
2023-02-20T06:52:40.526Z,-11179.88
2023-02-20T06:55:46.717Z,-11181.56
2023-02-20T06:58:54.382Z,-11184.53
2023-02-20T07:02:00.865Z,-11184.94
2023-02-20T07:05:10.344Z,-11199.16
2023-02-20T07:08:16.469Z,-11204.50
2023-02-20T07:11:24.244Z,-11216.16
2023-02-20T07:14:30.301Z,-11220.25
2023-02-20T07:17:36.716Z,-11205.63
2023-02-20T07:20:46.835Z,-11212.22
2023-02-20T07:23:53.676Z,-11218.69
2023-02-20T07:26:59.744Z,-11220.09
2023-02-20T07:30:07.017Z,-11225.72
2023-02-20T07:33:13.430Z,-11230.50
2023-02-20T07:36:22.011Z,-11222.91
2023-02-20T07:39:28.454Z,-11228.81
2023-02-20T07:42:35.069Z,-11231.06
2023-02-20T07:45:42.370Z,-11241.75
2023-02-20T07:48:48.756Z,-11242.03
2023-02-20T07:51:56.313Z,-11236.44
2023-02-20T07:55:02.984Z,-11245.84
2023-02-20T07:58:10.057Z,-11246.56
2023-02-20T08:01:16.578Z,-11235.03
2023-02-20T08:04:22.992Z,-11235.88
2023-02-20T08:07:30.828Z,-11240.06
2023-02-20T08:10:37.295Z,-11243.75
2023-02-20T08:13:44.775Z,-11232.19
2023-02-20T08:17:09.554Z,-11242.03
2023-02-20T08:20:16.773Z,-11243.19
2023-02-20T08:23:26.009Z,-11253.03
2023-02-20T08:26:34.834Z,-11245.16
2023-02-20T08:29:41.439Z,-11253.16
2023-02-20T08:32:48.061Z,-11241.47
2023-02-20T08:35:55.661Z,-11233.03
2023-02-20T08:39:03.746Z,-11245.44
2023-02-20T08:42:10.042Z,-11252.88
2023-02-20T08:45:16.213Z,-11246.13
2023-02-20T08:48:22.365Z,-11236.84
2023-02-20T08:51:28.526Z,-11238.81
2023-02-20T08:54:36.195Z,-11242.47
2023-02-20T08:57:44.701Z,-11233.19
2023-02-20T09:00:51.744Z,-11232.34
2023-02-20T09:03:58.058Z,-11236.44
2023-02-20T09:07:04.112Z,-11246.56
2023-02-20T09:10:12.022Z,-11251.91
2023-02-20T09:13:18.384Z,-11249.22
2023-02-20T09:16:25.723Z,-11249.78
2023-02-20T09:19:32.400Z,-11246.56
2023-02-20T09:22:38.878Z,-11243.75
2023-02-20T09:25:46.611Z,-11251.63
2023-02-20T09:28:52.763Z,-11260.63
2023-02-20T09:31:59.359Z,-11256.13
2023-02-20T09:35:05.811Z,-11255.00
2023-02-20T09:38:12.271Z,-11266.69
2023-02-20T09:41:31.551Z,-11252.19
2023-02-20T09:44:47.943Z,-11248.25
2023-02-20T09:48:16.807Z,-11258.50
2023-02-20T09:51:26.247Z,-11256.53
2023-02-20T09:54:38.116Z,-11261.19
2023-02-20T09:57:50.768Z,-11265.97
2023-02-20T10:01:03.162Z,-11265.00
2023-02-20T10:04:15.052Z,-11269.22
2023-02-20T10:07:26.485Z,-11262.03
2023-02-20T10:10:39.253Z,-11279.47
2023-02-20T10:13:58.387Z,-11267.09
2023-02-20T10:17:14.033Z,-11273.56
2023-02-20T10:20:28.251Z,-11268.22
2023-02-20T10:23:44.384Z,-11269.22
2023-02-20T10:27:00.140Z,-11284.28
2023-02-20T10:30:12.007Z,-11286.78
2023-02-20T10:33:28.054Z,-11284.84
2023-02-20T10:36:40.026Z,-11274.41
2023-02-20T10:39:52.065Z,-11280.88
2023-02-20T10:43:04.331Z,-11279.19
2023-02-20T10:46:17.891Z,-11278.34
2023-02-20T10:49:32.481Z,-11280.31
2023-02-20T10:52:45.290Z,-11277.09
2023-02-20T10:55:57.474Z,-11288.19
2023-02-20T10:59:10.495Z,-11274.41
2023-02-20T11:02:22.513Z,-11287.78
2023-02-20T11:05:36.123Z,-11289.63
2023-02-20T11:08:42.802Z,-11280.75
2023-02-20T11:11:56.777Z,-11291.44
2023-02-20T11:15:07.884Z,-11283.56
2023-02-20T11:18:26.173Z,-11283.28
2023-02-20T11:21:39.120Z,-11292.44
2023-02-20T11:24:46.130Z,-11290.19
2023-02-20T11:27:55.900Z,-11297.78
2023-02-20T11:31:05.263Z,-11304.25
2023-02-20T11:34:18.858Z,-11288.34
2023-02-20T11:37:25.512Z,-11282.00
2023-02-20T11:40:33.998Z,-11288.06
2023-02-20T11:44:00.208Z,-11291.31
2023-02-20T11:47:25.089Z,-11292.16
2023-02-20T11:50:40.561Z,-11291.03
2023-02-20T11:53:46.727Z,-11293.41
2023-02-20T11:57:00.885Z,-11287.63
2023-02-20T12:00:15.275Z,-11288.19
2023-02-20T12:03:25.079Z,-11310.31
2023-02-20T12:06:44.076Z,-11288.91
2023-02-20T12:09:54.534Z,-11292.16
2023-02-20T12:13:00.863Z,-11298.63
2023-02-20T12:16:24.364Z,-11310.72
2023-02-20T12:19:38.570Z,-11287.50
2023-02-20T12:22:53.055Z,-11292.16
2023-02-20T12:26:12.925Z,-11293.84
2023-02-20T12:29:43.634Z,-11284.28
2023-02-20T12:33:02.809Z,-11281.72
2023-02-20T12:36:20.294Z,-11287.63
2023-02-20T12:39:38.218Z,-11287.91
2023-02-20T12:42:54.558Z,-11276.38
2023-02-20T12:46:11.066Z,-11290.03
2023-02-20T12:49:35.860Z,-11284.84
2023-02-20T12:52:55.774Z,-11287.34
2023-02-20T12:56:16.766Z,-11289.47
2023-02-20T12:59:29.808Z,-11296.38
2023-02-20T13:02:42.842Z,-11295.53
2023-02-20T13:05:51.553Z,-11292.44
2023-02-20T13:09:06.369Z,-11281.16
2023-02-20T13:12:16.724Z,-11306.22
2023-02-20T13:15:39.867Z,-11289.34
2023-02-20T13:18:53.084Z,-11281.72
2023-02-20T13:22:00.537Z,-11297.78
2023-02-20T13:25:42.990Z,-11299.19
2023-02-20T13:28:50.792Z,-11294.25
2023-02-20T13:32:00.114Z,-11297.34
2023-02-20T13:35:35.514Z,-11272.44
2023-02-20T13:38:41.849Z,-11298.63
2023-02-20T13:42:04.565Z,-11296.66
2023-02-20T13:45:39.475Z,-11280.03
2023-02-20T13:48:47.148Z,-11303.13
2023-02-20T13:51:53.875Z,-11295.53
2023-02-20T13:55:03.451Z,-11281.72
2023-02-20T13:58:15.667Z,-11293.28
2023-02-20T14:01:24.037Z,-11284.69
2023-02-20T14:04:33.730Z,-11293.28
2023-02-20T14:07:45.703Z,-11289.91
2023-02-20T14:10:51.774Z,-11291.88
2023-02-20T14:14:00.351Z,-11286.38
2023-02-20T14:17:10.501Z,-11272.44
2023-02-20T14:20:24.737Z,-11271.47
2023-02-20T14:23:33.966Z,-11268.09
2023-02-20T14:26:40.590Z,-11260.63
2023-02-20T14:29:46.836Z,-11249.22
2023-02-20T14:32:56.534Z,-11253.59
2023-02-20T14:36:41.725Z,-11265.41
2023-02-20T14:39:57.576Z,-11262.03
2023-02-20T14:43:05.877Z,-11263.16
2023-02-20T14:46:23.802Z,-11245.16
2023-02-20T14:49:32.367Z,-11245.16
2023-02-20T14:52:38.503Z,-11235.16
2023-02-20T14:55:45.009Z,-11227.41
2023-02-20T14:58:51.000Z,-11222.06
2023-02-20T15:02:00.157Z,-11223.75
2023-02-20T15:05:09.494Z,-11221.50
2023-02-20T15:08:23.400Z,-11217.84
2023-02-20T15:11:30.720Z,-11218.97
2023-02-20T15:14:44.179Z,-11215.59
2023-02-20T15:18:06.505Z,-11208.16
2023-02-20T15:21:17.365Z,-11207.72
2023-02-20T15:24:36.918Z,-11202.25
2023-02-20T15:28:08.660Z,-11196.75
2023-02-20T15:31:25.224Z,-11194.66
2023-02-20T15:34:36.268Z,-11197.03
2023-02-20T15:37:49.461Z,-11186.91
2023-02-20T15:40:58.728Z,-11189.31
2023-02-20T15:44:05.402Z,-11184.66
2023-02-20T15:47:11.903Z,-11185.22
2023-02-20T15:50:18.882Z,-11185.78
2023-02-20T15:53:29.801Z,-11183.41
2023-02-20T15:56:36.551Z,-11181.56
2023-02-20T15:59:43.145Z,-11176.09
2023-02-20T16:02:49.802Z,-11173.72
2023-02-20T16:05:56.691Z,-11172.03
2023-02-20T16:09:05.031Z,-11168.94
2023-02-20T16:12:17.647Z,-11168.37
2023-02-20T16:15:25.484Z,-11166.41
2023-02-20T16:18:31.851Z,-11163.88
2023-02-20T16:21:42.780Z,-11168.78
2023-02-20T16:24:52.634Z,-11164.44
2023-02-20T16:27:59.170Z,-11165.00
2023-02-20T16:31:05.560Z,-11162.47
2023-02-20T16:34:21.484Z,-11164.56
2023-02-20T16:37:29.047Z,-11165.69
2023-02-20T16:40:37.138Z,-11160.63
2023-02-20T16:43:43.733Z,-11161.75
2023-02-20T16:46:50.518Z,-11161.91
2023-02-20T16:49:58.028Z,-11156.56
2023-02-20T16:53:06.478Z,-11152.06
2023-02-20T16:56:14.639Z,-11152.34
2023-02-20T16:59:22.813Z,-11155.56
2023-02-20T17:02:32.618Z,-11158.09
2023-02-20T17:05:40.759Z,-11150.78
2023-02-20T17:08:46.978Z,-11145.47
2023-02-20T17:11:54.874Z,-11150.09
2023-02-20T17:15:01.610Z,-11151.34
2023-02-20T17:18:07.805Z,-11155.00
2023-02-20T17:21:14.372Z,-11156.13
2023-02-20T17:24:20.995Z,-11158.66
2023-02-20T17:27:28.715Z,-11153.59
2023-02-20T17:30:35.391Z,-11147.97
2023-02-20T17:33:41.757Z,-11145.88
2023-02-20T17:36:49.631Z,-11144.19
2023-02-20T17:39:56.073Z,-11141.81
2023-02-20T17:43:03.998Z,-11143.62
2023-02-20T17:46:10.644Z,-11141.81
2023-02-20T17:49:17.532Z,-11137.44
2023-02-20T17:52:25.265Z,-11137.72
2023-02-20T17:55:33.804Z,-11137.31
2023-02-20T17:58:42.120Z,-11137.16
2023-02-20T18:01:48.772Z,-11133.78
2023-02-20T18:04:54.980Z,-11131.81
2023-02-20T18:08:01.349Z,-11130.97
2023-02-20T18:11:07.859Z,-11130.41
2023-02-20T18:14:16.873Z,-11134.22
2023-02-20T18:17:24.583Z,-11134.34
2023-02-20T18:20:31.605Z,-11126.22
2023-02-20T18:23:37.804Z,-11128.31
2023-02-20T18:26:44.007Z,-11129.16
2023-02-20T18:29:51.583Z,-11127.91
2023-02-20T18:32:58.342Z,-11130.97
2023-02-20T18:36:19.809Z,-11127.06
2023-02-20T18:39:26.468Z,-11112.72
2023-02-20T18:42:32.763Z,-11105.44
2023-02-20T18:45:40.701Z,-11097.84
2023-02-20T18:48:47.295Z,-11088.00
2023-02-20T18:51:53.394Z,-11084.91
2023-02-20T18:54:59.862Z,-11074.53
2023-02-20T18:58:05.966Z,-11083.50
2023-02-20T19:01:19.822Z,-11087.44
2023-02-20T19:04:26.799Z,-11091.38
2023-02-20T19:07:33.192Z,-11091.25
2023-02-20T19:10:39.506Z,-11077.34
2023-02-20T19:13:45.679Z,-11084.34
2023-02-20T19:16:55.624Z,-11087.16
2023-02-20T19:20:02.046Z,-11081.00
2023-02-20T19:23:08.345Z,-11076.50
2023-02-20T19:26:15.113Z,-11071.72
2023-02-20T19:29:21.933Z,-11072.00
2023-02-20T19:32:29.712Z,-11077.06
2023-02-20T19:35:36.255Z,-11084.91
2023-02-20T19:38:42.532Z,-11082.53
2023-02-20T19:41:50.683Z,-11071.31
2023-02-20T19:44:56.925Z,-11085.75
2023-02-20T19:48:05.092Z,-11083.50
2023-02-20T19:51:11.621Z,-11077.34
2023-02-20T19:54:18.933Z,-11068.91
2023-02-20T19:57:25.625Z,-11073.12
2023-02-20T20:00:32.126Z,-11074.53
2023-02-20T20:03:39.750Z,-11075.94
2023-02-20T20:06:46.297Z,-11076.91
2023-02-20T20:09:52.389Z,-11080.00
2023-02-20T20:12:58.497Z,-11072.28
2023-02-20T20:16:04.493Z,-11065.56
2023-02-20T20:19:12.738Z,-11061.47
2023-02-20T20:22:18.988Z,-11063.44
2023-02-20T20:25:26.203Z,-11061.47
2023-02-20T20:28:32.177Z,-11058.13
2023-02-20T20:31:40.591Z,-11056.16
2023-02-20T20:34:52.609Z,-11061.91
2023-02-20T20:38:00.281Z,-11054.88
2023-02-20T20:41:06.493Z,-11050.41
2023-02-20T20:44:12.805Z,-11050.69
2023-02-20T20:47:19.000Z,-11044.38
2023-02-20T20:50:28.860Z,-11038.59
2023-02-20T20:53:35.129Z,-11042.81
2023-02-20T20:56:46.643Z,-11044.50
2023-02-20T20:59:54.913Z,-11034.41
2023-02-20T21:03:01.876Z,-11043.94
2023-02-20T21:06:09.830Z,-11040.28
2023-02-20T21:09:16.094Z,-11032.56
2023-02-20T21:12:22.728Z,-11040.84
2023-02-20T21:15:29.946Z,-11033.97
2023-02-20T21:18:37.600Z,-11024.03
2023-02-20T21:21:45.298Z,-11032.16
2023-02-20T21:24:51.613Z,-11030.19
2023-02-20T21:27:58.767Z,-11027.94
2023-02-20T21:31:05.314Z,-11021.78
2023-02-20T21:34:12.497Z,-11021.06
2023-02-20T21:37:20.609Z,-11021.63
2023-02-20T21:40:27.072Z,-11023.47
2023-02-20T21:43:50.752Z,-11014.34
2023-02-20T21:46:58.786Z,-11021.78
2023-02-20T21:50:07.465Z,-11012.81
2023-02-20T21:53:17.041Z,-11014.34
2023-02-20T21:56:23.553Z,-11013.09
2023-02-20T21:59:28.741Z,-11010.00
2023-02-20T22:02:33.990Z,-11008.03
2023-02-20T22:05:39.220Z,-11007.47
2023-02-20T22:09:03.863Z,-11005.09
2023-02-20T22:12:27.881Z,-11010.13
2023-02-20T22:15:51.838Z,-11001.03
2023-02-20T22:19:15.888Z,-10988.97
2023-02-20T22:22:40.093Z,-10989.94
2023-02-20T22:26:05.148Z,-11002.84
2023-02-20T22:29:29.932Z,-10997.09
2023-02-20T22:32:53.676Z,-10998.78
2023-02-20T22:36:17.444Z,-11003.81
2023-02-20T22:39:41.080Z,-10991.63
2023-02-20T22:43:05.750Z,-10994.84
2023-02-20T22:46:29.453Z,-10993.44
2023-02-20T22:49:53.494Z,-10988.97
2023-02-20T22:53:17.461Z,-10986.88
2023-02-20T22:56:42.276Z,-10988.13
2023-02-20T23:00:06.794Z,-10984.19
2023-02-20T23:03:30.521Z,-10978.75
2023-02-20T23:06:54.214Z,-10992.47
2023-02-20T23:10:18.125Z,-10991.22
2023-02-20T23:13:41.983Z,-10976.22
2023-02-20T23:17:06.728Z,-10992.34
2023-02-20T23:20:33.259Z,-10974.53
2023-02-20T23:23:56.853Z,-10986.59
2023-02-20T23:27:20.837Z,-10971.59
2023-02-20T23:30:44.805Z,-10960.09
2023-02-20T23:34:09.572Z,-10978.03
2023-02-20T23:37:33.566Z,-10980.28
2023-02-20T23:40:57.596Z,-10960.78
2023-02-20T23:44:24.262Z,-10965.16
2023-02-20T23:47:48.049Z,-10975.22
2023-02-20T23:51:13.714Z,-10969.63
2023-02-20T23:54:37.268Z,-10968.38
2023-02-20T23:58:00.852Z,-10971.44
